createdAt,value
2023-01-26T00:02:11.752Z,101340.72
2023-01-26T00:04:40.037Z,101348.53
2023-01-26T00:07:07.932Z,101346.72
2023-01-26T00:09:36.368Z,101342.22
2023-01-26T00:12:05.017Z,101341.38
2023-01-26T00:14:49.847Z,101337.09
2023-01-26T00:17:26.789Z,101335.56
2023-01-26T00:19:56.405Z,101336.38
2023-01-26T00:22:26.821Z,101334.63
2023-01-26T00:24:56.207Z,101333.81
2023-01-26T00:27:24.639Z,101328.69
2023-01-26T00:29:53.103Z,101324.06
2023-01-26T00:32:22.407Z,101329.56
2023-01-26T00:34:50.899Z,101319.22
2023-01-26T00:37:19.030Z,101321.09
2023-01-26T00:39:47.135Z,101318.78
2023-01-26T00:42:15.940Z,101305.50
2023-01-26T00:44:44.610Z,101316.69
2023-01-26T00:47:15.330Z,101319.41
2023-01-26T00:49:45.770Z,101315.66
2023-01-26T00:52:14.156Z,101303.00
2023-01-26T00:54:42.340Z,101306.03
2023-01-26T00:57:11.049Z,101310.22
2023-01-26T00:59:39.129Z,101301.50
2023-01-26T01:02:07.248Z,101302.34
2023-01-26T01:04:35.664Z,101295.47
2023-01-26T01:07:05.098Z,101298.19
2023-01-26T01:09:33.544Z,101298.59
2023-01-26T01:12:01.829Z,101302.69
2023-01-26T01:14:30.010Z,101299.31
2023-01-26T01:16:58.265Z,101290.72
2023-01-26T01:19:27.414Z,101293.88
2023-01-26T01:21:55.487Z,101294.63
2023-01-26T01:24:24.969Z,101294.66
2023-01-26T01:26:53.472Z,101285.25
2023-01-26T01:29:21.768Z,101278.91
2023-01-26T01:31:49.919Z,101280.03
2023-01-26T01:34:18.322Z,101284.03
2023-01-26T01:36:46.417Z,101280.38
2023-01-26T01:41:44.696Z,101269.84
2023-01-26T01:44:15.471Z,101275.97
2023-01-26T01:46:48.106Z,101267.34
2023-01-26T01:49:21.045Z,101273.53
2023-01-26T01:51:55.235Z,101267.13
2023-01-26T01:54:29.945Z,101266.19
2023-01-26T01:57:03.675Z,101253.31
2023-01-26T01:59:33.664Z,101252.25
2023-01-26T02:02:02.162Z,101254.72
2023-01-26T02:04:30.752Z,101260.81
2023-01-26T02:07:01.594Z,101252.94
2023-01-26T02:09:50.788Z,101257.31
2023-01-26T02:12:24.067Z,101244.66
2023-01-26T02:14:54.293Z,101240.97
2023-01-26T02:17:22.580Z,101241.09
2023-01-26T02:20:02.410Z,101243.81
2023-01-26T02:22:43.301Z,101239.44
2023-01-26T02:25:24.947Z,101228.94
2023-01-26T02:27:54.757Z,101228.91
2023-01-26T02:30:24.417Z,101228.12
2023-01-26T02:32:52.629Z,101230.88
2023-01-26T02:35:21.176Z,101224.47
2023-01-26T02:37:49.345Z,101219.38
2023-01-26T02:40:25.918Z,101223.69
2023-01-26T02:42:55.278Z,101206.72
2023-01-26T02:45:24.778Z,101208.84
2023-01-26T02:47:52.911Z,101198.47
2023-01-26T02:50:20.197Z,101203.00
2023-01-26T02:52:48.330Z,101198.53
2023-01-26T02:55:29.365Z,101196.47
2023-01-26T02:58:00.669Z,101193.00
2023-01-26T03:00:33.544Z,101193.81
2023-01-26T03:03:10.724Z,101184.22
2023-01-26T03:05:38.736Z,101181.66
2023-01-26T03:08:06.946Z,101179.87
2023-01-26T03:10:36.093Z,101180.50
2023-01-26T03:13:05.626Z,101189.03
2023-01-26T03:15:43.970Z,101180.38
2023-01-26T03:18:29.079Z,101182.91
2023-01-26T03:21:16.909Z,101172.41
2023-01-26T03:24:02.706Z,101179.59
2023-01-26T03:26:48.603Z,101175.47
2023-01-26T03:29:18.509Z,101168.44
2023-01-26T03:31:46.928Z,101166.91
2023-01-26T03:34:15.027Z,101166.72
2023-01-26T03:36:43.437Z,101169.16
2023-01-26T03:39:32.161Z,101165.56
2023-01-26T03:42:18.430Z,101160.13
2023-01-26T03:45:06.276Z,101166.22
2023-01-26T03:47:54.422Z,101172.78
2023-01-26T03:50:40.971Z,101168.28
2023-01-26T03:53:34.281Z,101161.38
2023-01-26T03:56:18.411Z,101154.31
2023-01-26T03:58:46.710Z,101155.81
2023-01-26T04:01:19.831Z,101158.59
2023-01-26T04:04:07.549Z,101157.62
2023-01-26T04:06:54.620Z,101157.84
2023-01-26T04:09:23.239Z,101153.47
2023-01-26T04:11:51.401Z,101155.09
2023-01-26T04:14:49.383Z,101143.00
2023-01-26T04:17:38.002Z,101149.78
2023-01-26T04:20:24.583Z,101154.03
2023-01-26T04:22:53.096Z,101154.19
2023-01-26T04:25:22.823Z,101152.50
2023-01-26T04:27:51.408Z,101161.22
2023-01-26T04:30:21.312Z,101154.00
2023-01-26T04:32:52.675Z,101155.72
2023-01-26T04:35:21.380Z,101149.53
2023-01-26T04:37:49.822Z,101150.31
2023-01-26T04:40:18.167Z,101145.00
2023-01-26T04:42:47.570Z,101153.03
2023-01-26T04:45:16.003Z,101154.69
2023-01-26T04:47:45.553Z,101150.47
2023-01-26T04:50:17.899Z,101148.78
2023-01-26T04:52:47.623Z,101145.25
2023-01-26T04:55:17.111Z,101152.19
2023-01-26T04:57:45.850Z,101143.41
2023-01-26T05:00:15.855Z,101141.91
2023-01-26T05:02:45.789Z,101148.22
2023-01-26T05:05:14.239Z,101146.31
2023-01-26T05:07:43.781Z,101149.88
2023-01-26T05:10:15.762Z,101150.53
2023-01-26T05:12:44.016Z,101141.75
2023-01-26T05:15:13.148Z,101145.09
2023-01-26T05:17:41.466Z,101148.66
2023-01-26T05:20:11.815Z,101143.50
2023-01-26T05:22:41.129Z,101143.59
2023-01-26T05:25:11.851Z,101147.22
2023-01-26T05:27:40.223Z,101152.56
2023-01-26T05:30:12.770Z,101161.34
2023-01-26T05:32:43.156Z,101155.19
2023-01-26T05:35:11.653Z,101163.22
2023-01-26T05:37:42.062Z,101168.63
2023-01-26T05:40:14.185Z,101170.44
2023-01-26T05:42:44.094Z,101169.41
2023-01-26T05:45:12.981Z,101171.97
2023-01-26T05:47:43.057Z,101171.06
2023-01-26T05:50:12.867Z,101167.75
2023-01-26T05:52:42.522Z,101161.50
2023-01-26T05:55:12.385Z,101158.78
2023-01-26T05:57:40.476Z,101158.75
2023-01-26T06:00:10.707Z,101163.97
2023-01-26T06:02:42.286Z,101162.16
2023-01-26T06:05:11.564Z,101164.75
2023-01-26T06:07:39.644Z,101161.28
2023-01-26T06:10:08.763Z,101163.44
2023-01-26T06:12:39.192Z,101165.03
2023-01-26T06:15:09.415Z,101168.47
2023-01-26T06:17:38.822Z,101164.94
2023-01-26T06:20:09.761Z,101174.47
2023-01-26T06:22:38.349Z,101180.50
2023-01-26T06:25:06.851Z,101173.53
2023-01-26T06:27:36.345Z,101172.94
2023-01-26T06:30:09.205Z,101181.06
2023-01-26T06:32:38.259Z,101176.03
2023-01-26T06:35:08.396Z,101178.31
2023-01-26T06:37:36.929Z,101177.38
2023-01-26T06:40:05.802Z,101172.16
2023-01-26T06:42:34.097Z,101175.47
2023-01-26T06:45:02.102Z,101171.91
2023-01-26T06:47:31.487Z,101169.25
2023-01-26T06:50:01.025Z,101171.06
2023-01-26T06:52:32.563Z,101173.69
2023-01-26T06:55:02.710Z,101177.06
2023-01-26T06:57:33.484Z,101168.47
2023-01-26T07:00:01.857Z,101170.38
2023-01-26T07:02:32.785Z,101172.87
2023-01-26T07:05:00.764Z,101166.72
2023-01-26T07:07:29.274Z,101163.19
2023-01-26T07:09:57.327Z,101165.66
2023-01-26T07:12:25.513Z,101164.69
2023-01-26T07:14:53.734Z,101167.31
2023-01-26T07:17:21.938Z,101155.94
2023-01-26T07:19:51.335Z,101162.97
2023-01-26T07:22:20.017Z,101161.91
2023-01-26T07:24:48.119Z,101159.25
2023-01-26T07:27:16.191Z,101166.25
2023-01-26T07:29:46.425Z,101164.50
2023-01-26T07:32:14.695Z,101166.19
2023-01-26T07:34:42.686Z,101163.47
2023-01-26T07:37:12.375Z,101163.41
2023-01-26T07:39:40.455Z,101167.78
2023-01-26T07:42:08.930Z,101173.00
2023-01-26T07:44:39.689Z,101170.41
2023-01-26T07:47:07.751Z,101164.25
2023-01-26T07:49:35.814Z,101161.59
2023-01-26T07:52:04.892Z,101155.41
2023-01-26T07:54:34.125Z,101158.91
2023-01-26T07:57:02.034Z,101155.47
2023-01-26T07:59:31.221Z,101155.56
2023-01-26T08:01:59.353Z,101164.38
2023-01-26T08:04:27.693Z,101164.44
2023-01-26T08:06:55.854Z,101162.53
2023-01-26T08:09:24.854Z,101161.69
2023-01-26T08:11:57.247Z,101165.22
2023-01-26T08:14:27.991Z,101155.41
2023-01-26T08:16:59.433Z,101158.78
2023-01-26T08:19:27.378Z,101156.25
2023-01-26T08:21:57.624Z,101158.06
2023-01-26T08:24:26.640Z,101165.06
2023-01-26T08:26:56.072Z,101166.25
2023-01-26T08:29:23.965Z,101161.09
2023-01-26T08:31:52.292Z,101177.75
2023-01-26T08:34:22.016Z,101164.53
2023-01-26T08:36:50.271Z,101163.66
2023-01-26T08:39:18.760Z,101176.84
2023-01-26T08:41:46.838Z,101173.69
2023-01-26T08:44:16.695Z,101171.97
2023-01-26T08:46:45.559Z,101173.44
2023-01-26T08:49:13.744Z,101175.87
2023-01-26T08:51:41.735Z,101176.66
2023-01-26T08:54:10.078Z,101174.78
2023-01-26T08:56:38.108Z,101174.59
2023-01-26T08:59:06.178Z,101174.41
2023-01-26T09:01:35.732Z,101175.22
2023-01-26T09:04:03.774Z,101183.97
2023-01-26T09:06:33.157Z,101184.00
2023-01-26T09:09:01.418Z,101181.25
2023-01-26T09:11:29.468Z,101183.28
2023-01-26T09:13:57.549Z,101186.31
2023-01-26T09:16:26.524Z,101186.78
2023-01-26T09:18:56.088Z,101184.38
2023-01-26T09:21:24.981Z,101185.00
2023-01-26T09:23:53.632Z,101190.09
2023-01-26T09:26:21.695Z,101192.84
2023-01-26T09:28:51.597Z,101191.69
2023-01-26T09:31:20.000Z,101192.34
2023-01-26T09:33:49.903Z,101191.47
2023-01-26T09:36:19.727Z,101198.41
2023-01-26T09:38:48.303Z,101198.41
2023-01-26T09:41:33.429Z,101192.97
2023-01-26T09:44:06.636Z,101193.94
2023-01-26T09:46:46.836Z,101183.63
2023-01-26T09:49:20.582Z,101175.91
2023-01-26T09:51:59.988Z,101177.25
2023-01-26T09:54:34.781Z,101180.47
2023-01-26T09:57:11.544Z,101174.41
2023-01-26T09:59:45.430Z,101176.34
2023-01-26T10:02:26.572Z,101173.16
2023-01-26T10:04:59.824Z,101173.13
2023-01-26T10:07:29.551Z,101175.13
2023-01-26T10:09:58.406Z,101168.75
2023-01-26T10:12:30.414Z,101171.75
2023-01-26T10:15:04.204Z,101176.16
2023-01-26T10:17:36.140Z,101173.47
2023-01-26T10:20:07.944Z,101175.03
2023-01-26T10:22:44.557Z,101182.00
2023-01-26T10:25:17.385Z,101177.91
2023-01-26T10:27:46.890Z,101182.66
2023-01-26T10:30:16.300Z,101178.56
2023-01-26T10:32:46.742Z,101173.28
2023-01-26T10:35:18.691Z,101165.75
2023-01-26T10:37:48.513Z,101161.25
2023-01-26T10:40:18.464Z,101164.81
2023-01-26T10:42:56.544Z,101167.94
2023-01-26T10:45:31.052Z,101167.59
2023-01-26T10:48:15.182Z,101167.25
2023-01-26T10:50:43.473Z,101166.22
2023-01-26T10:53:19.063Z,101154.66
2023-01-26T10:56:00.723Z,101146.72
2023-01-26T10:58:46.064Z,101152.22
2023-01-26T11:01:16.592Z,101141.97
2023-01-26T11:04:04.599Z,101143.78
2023-01-26T11:06:34.163Z,101149.56
2023-01-26T11:09:20.063Z,101144.28
2023-01-26T11:12:00.704Z,101139.34
2023-01-26T11:14:30.329Z,101134.56
2023-01-26T11:17:06.493Z,101131.87
2023-01-26T11:19:48.561Z,101126.03
2023-01-26T11:22:23.661Z,101130.16
2023-01-26T11:25:04.742Z,101128.16
2023-01-26T11:27:44.471Z,101118.84
2023-01-26T11:30:31.255Z,101118.25
2023-01-26T11:33:04.826Z,101113.22
2023-01-26T11:35:42.417Z,101127.34
2023-01-26T11:38:23.594Z,101123.94
2023-01-26T11:41:04.164Z,101118.56
2023-01-26T11:43:55.364Z,101123.94
2023-01-26T11:46:37.944Z,101115.13
2023-01-26T11:49:21.132Z,101104.53
2023-01-26T11:52:01.412Z,101106.75
2023-01-26T11:54:40.104Z,101105.50
2023-01-26T11:57:23.431Z,101106.81
2023-01-26T11:59:55.757Z,101103.91
2023-01-26T12:02:31.758Z,101093.00
2023-01-26T12:05:06.004Z,101094.91
2023-01-26T12:07:54.541Z,101094.84
2023-01-26T12:10:29.009Z,101091.13
2023-01-26T12:13:06.380Z,101081.25
2023-01-26T12:15:38.064Z,101085.69
2023-01-26T12:18:15.495Z,101078.34
2023-01-26T12:20:47.203Z,101080.16
2023-01-26T12:23:28.490Z,101074.22
2023-01-26T12:26:01.266Z,101077.31
2023-01-26T12:28:33.947Z,101071.56
2023-01-26T12:31:10.333Z,101065.78
2023-01-26T12:33:39.250Z,101062.81
2023-01-26T12:36:21.246Z,101065.16
2023-01-26T12:39:08.138Z,101065.19
2023-01-26T12:41:49.708Z,101062.88
2023-01-26T12:44:31.181Z,101062.69
2023-01-26T12:47:07.146Z,101046.66
2023-01-26T12:49:41.676Z,101048.41
2023-01-26T12:52:17.405Z,101049.47
2023-01-26T12:54:49.592Z,101051.31
2023-01-26T12:57:22.637Z,101047.44
2023-01-26T12:59:52.622Z,101047.34
2023-01-26T13:02:29.750Z,101044.44
2023-01-26T13:04:59.743Z,101041.63
2023-01-26T13:07:33.708Z,101046.38
2023-01-26T13:10:22.444Z,101038.47
2023-01-26T13:12:55.291Z,101043.22
2023-01-26T13:15:26.800Z,101042.84
2023-01-26T13:17:57.577Z,101042.34
2023-01-26T13:20:42.897Z,101043.50
2023-01-26T13:23:52.660Z,101047.28
2023-01-26T13:26:45.276Z,101040.00
2023-01-26T13:29:35.412Z,101039.88
2023-01-26T13:32:55.747Z,101043.34
2023-01-26T13:35:27.707Z,101037.56
2023-01-26T13:38:01.806Z,101038.69
2023-01-26T13:40:33.373Z,101039.00
2023-01-26T13:43:14.588Z,101037.91
2023-01-26T13:45:56.870Z,101046.34
2023-01-26T13:48:41.094Z,101041.91
2023-01-26T13:51:14.971Z,101039.78
2023-01-26T13:53:47.972Z,101041.50
2023-01-26T13:56:26.658Z,101037.75
2023-01-26T13:58:55.484Z,101036.59
2023-01-26T14:01:23.896Z,101041.69
2023-01-26T14:04:04.164Z,101046.84
2023-01-26T14:06:35.281Z,101053.78
2023-01-26T14:09:04.687Z,101053.78
2023-01-26T14:11:34.418Z,101046.72
2023-01-26T14:14:03.604Z,101051.00
2023-01-26T14:16:34.056Z,101048.13
2023-01-26T14:19:07.366Z,101044.75
2023-01-26T14:21:48.012Z,101047.44
2023-01-26T14:24:16.195Z,101042.22
2023-01-26T14:26:44.623Z,101048.97
2023-01-26T14:29:14.399Z,101052.44
2023-01-26T14:31:42.557Z,101055.00
2023-01-26T14:34:12.042Z,101047.81
2023-01-26T14:36:40.201Z,101038.34
2023-01-26T14:39:18.651Z,101042.56
2023-01-26T14:41:48.569Z,101037.25
2023-01-26T14:44:16.672Z,101046.91
2023-01-26T14:46:55.036Z,101046.84
2023-01-26T14:49:29.480Z,101046.91
2023-01-26T14:51:59.511Z,101053.87
2023-01-26T14:54:33.131Z,101047.75
2023-01-26T14:57:01.922Z,101051.31
2023-01-26T14:59:36.158Z,101047.25
2023-01-26T15:02:13.879Z,101052.31
2023-01-26T15:04:47.298Z,101041.44
2023-01-26T15:07:42.661Z,101055.16
2023-01-26T15:10:38.621Z,101050.78
2023-01-26T15:13:22.134Z,101051.53
2023-01-26T15:16:04.869Z,101043.03
2023-01-26T15:18:34.276Z,101048.44
2023-01-26T15:21:13.192Z,101046.56
2023-01-26T15:23:43.725Z,101054.50
2023-01-26T15:26:27.975Z,101061.28
2023-01-26T15:28:59.241Z,101057.94
2023-01-26T15:31:35.349Z,101060.34
2023-01-26T15:34:04.208Z,101063.19
2023-01-26T15:36:47.335Z,101061.09
2023-01-26T15:39:18.094Z,101050.50
2023-01-26T15:42:02.215Z,101058.41
2023-01-26T15:44:30.263Z,101053.06
2023-01-26T15:46:59.652Z,101061.78
2023-01-26T15:49:28.065Z,101055.75
2023-01-26T15:51:56.137Z,101056.59
2023-01-26T15:54:24.394Z,101060.19
2023-01-26T15:56:53.978Z,101057.72
2023-01-26T15:59:21.983Z,101062.09
2023-01-26T16:01:51.663Z,101057.03
2023-01-26T16:04:19.875Z,101050.91
2023-01-26T16:06:47.996Z,101055.16
2023-01-26T16:09:16.163Z,101057.69
2023-01-26T16:11:51.601Z,101044.91
2023-01-26T16:14:21.320Z,101048.34
2023-01-26T16:16:50.199Z,101060.84
2023-01-26T16:19:33.685Z,101064.31
2023-01-26T16:22:03.172Z,101063.69
2023-01-26T16:24:31.250Z,101057.25
2023-01-26T16:26:59.200Z,101060.00
2023-01-26T16:29:28.928Z,101062.72
2023-01-26T16:31:57.012Z,101061.13
2023-01-26T16:34:25.064Z,101071.59
2023-01-26T16:36:53.336Z,101070.03
2023-01-26T16:39:21.958Z,101065.62
2023-01-26T16:41:50.307Z,101068.13
2023-01-26T16:44:19.622Z,101068.13
2023-01-26T16:46:49.037Z,101073.19
2023-01-26T16:49:17.424Z,101069.84
2023-01-26T16:51:46.135Z,101062.47
2023-01-26T16:54:14.112Z,101067.81
2023-01-26T16:56:42.388Z,101067.63
2023-01-26T16:59:10.633Z,101067.44
2023-01-26T17:01:39.900Z,101070.06
2023-01-26T17:04:12.071Z,101075.31
2023-01-26T17:06:40.480Z,101074.56
2023-01-26T17:09:10.407Z,101071.09
2023-01-26T17:11:38.405Z,101078.16
2023-01-26T17:14:06.689Z,101074.53
2023-01-26T17:16:34.809Z,101072.66
2023-01-26T17:19:02.943Z,101067.34
2023-01-26T17:21:32.665Z,101069.91
2023-01-26T17:24:00.734Z,101069.88
2023-01-26T17:26:28.880Z,101069.97
2023-01-26T17:28:57.241Z,101069.97
2023-01-26T17:31:26.720Z,101075.13
2023-01-26T17:33:55.896Z,101072.50
2023-01-26T17:36:24.351Z,101073.31
2023-01-26T17:38:54.182Z,101068.00
2023-01-26T17:41:22.226Z,101076.72
2023-01-26T17:43:51.325Z,101072.25
2023-01-26T17:46:21.917Z,101073.00
2023-01-26T17:48:50.804Z,101064.37
2023-01-26T17:51:21.074Z,101069.69
2023-01-26T17:53:50.553Z,101071.63
2023-01-26T17:56:22.008Z,101076.78
2023-01-26T17:58:51.218Z,101085.44
2023-01-26T18:01:21.071Z,101080.16
2023-01-26T18:03:49.916Z,101087.94
2023-01-26T18:06:18.378Z,101085.34
2023-01-26T18:08:46.653Z,101095.09
2023-01-26T18:11:16.300Z,101097.72
2023-01-26T18:13:45.691Z,101095.97
2023-01-26T18:16:16.571Z,101097.63
2023-01-26T18:18:44.998Z,101105.16
2023-01-26T18:21:15.359Z,101109.69
2023-01-26T18:23:45.663Z,101105.19
2023-01-26T18:26:15.619Z,101102.81
2023-01-26T18:28:45.303Z,101096.78
2023-01-26T18:31:15.354Z,101098.56
2023-01-26T18:33:43.714Z,101098.53
2023-01-26T18:36:14.565Z,101097.59
2023-01-26T18:38:44.491Z,101099.31
2023-01-26T18:41:14.411Z,101093.19
2023-01-26T18:43:43.718Z,101092.34
2023-01-26T18:46:13.493Z,101095.69
2023-01-26T18:48:41.655Z,101093.84
2023-01-26T18:51:13.229Z,101092.03
2023-01-26T18:53:41.638Z,101092.16
2023-01-26T18:56:11.791Z,101092.28
2023-01-26T18:58:40.658Z,101089.66
2023-01-26T19:01:12.045Z,101088.81
2023-01-26T19:03:47.441Z,101083.41
2023-01-26T19:06:19.745Z,101076.53
2023-01-26T19:08:55.371Z,101087.03
2023-01-26T19:11:23.451Z,101086.19
2023-01-26T19:13:51.745Z,101089.81
2023-01-26T19:16:19.834Z,101081.78
2023-01-26T19:18:49.894Z,101086.03
2023-01-26T19:21:21.572Z,101082.53
2023-01-26T19:23:50.166Z,101080.66
2023-01-26T19:26:20.400Z,101072.66
2023-01-26T19:28:50.607Z,101078.66
2023-01-26T19:31:20.125Z,101088.16
2023-01-26T19:33:53.618Z,101085.44
2023-01-26T19:36:22.414Z,101086.25
2023-01-26T19:38:50.808Z,101081.81
2023-01-26T19:41:19.795Z,101076.59
2023-01-26T19:43:48.415Z,101083.50
2023-01-26T19:46:16.761Z,101086.03
2023-01-26T19:48:46.096Z,101087.75
2023-01-26T19:51:17.693Z,101083.44
2023-01-26T19:53:47.988Z,101077.28
2023-01-26T19:56:18.343Z,101081.69
2023-01-26T19:58:50.839Z,101073.00
2023-01-26T20:01:19.860Z,101072.06
2023-01-26T20:03:50.679Z,101070.22
2023-01-26T20:06:21.961Z,101069.25
2023-01-26T20:08:50.870Z,101076.19
2023-01-26T20:11:20.257Z,101075.19
2023-01-26T20:13:48.240Z,101080.56
2023-01-26T20:16:16.565Z,101070.97
2023-01-26T20:18:45.110Z,101079.78
2023-01-26T20:21:13.089Z,101080.59
2023-01-26T20:23:53.566Z,101083.19
2023-01-26T20:26:22.860Z,101081.37
2023-01-26T20:28:52.092Z,101086.56
2023-01-26T20:31:22.279Z,101084.75
2023-01-26T20:33:51.839Z,101083.78
2023-01-26T20:36:23.647Z,101084.06
2023-01-26T20:38:53.780Z,101086.66
2023-01-26T20:41:23.984Z,101084.06
2023-01-26T20:44:00.250Z,101088.28
2023-01-26T20:46:30.618Z,101084.69
2023-01-26T20:48:58.986Z,101091.56
2023-01-26T20:51:30.310Z,101092.28
2023-01-26T20:54:00.568Z,101089.88
2023-01-26T20:56:28.635Z,101085.44
2023-01-26T20:58:57.597Z,101083.59
2023-01-26T21:01:26.848Z,101087.13
2023-01-26T21:03:55.323Z,101090.75
2023-01-26T21:06:24.666Z,101093.38
2023-01-26T21:08:55.061Z,101096.97
2023-01-26T21:11:26.389Z,101092.72
2023-01-26T21:13:55.952Z,101095.34
2023-01-26T21:16:24.468Z,101087.38
2023-01-26T21:18:52.845Z,101092.47
2023-01-26T21:21:23.332Z,101101.09
2023-01-26T21:23:52.120Z,101096.56
2023-01-26T21:26:22.593Z,101095.56
2023-01-26T21:28:53.625Z,101103.56
2023-01-26T21:31:25.010Z,101100.25
2023-01-26T21:33:53.845Z,101097.53
2023-01-26T21:36:24.471Z,101094.84
2023-01-26T21:38:54.211Z,101100.06
2023-01-26T21:41:41.592Z,101102.53
2023-01-26T21:44:12.668Z,101103.31
2023-01-26T21:46:41.323Z,101098.91
2023-01-26T21:49:10.685Z,101094.50
2023-01-26T21:52:08.180Z,101093.56
2023-01-26T21:54:36.668Z,101092.69
2023-01-26T21:57:26.730Z,101081.31
2023-01-26T21:59:55.895Z,101080.47
2023-01-26T22:02:23.951Z,101075.19
2023-01-26T22:04:52.765Z,101080.47
2023-01-26T22:07:20.807Z,101077.00
2023-01-26T22:09:48.887Z,101085.81
2023-01-26T22:12:17.573Z,101075.19
2023-01-26T22:14:45.545Z,101075.09
2023-01-26T22:17:15.082Z,101081.13
2023-01-26T22:19:43.381Z,101078.44
2023-01-26T22:22:12.728Z,101080.19
2023-01-26T22:24:40.910Z,101083.75
2023-01-26T22:27:09.269Z,101078.38
2023-01-26T22:29:37.292Z,101071.31
2023-01-26T22:32:05.720Z,101082.69
2023-01-26T22:34:35.701Z,101081.75
2023-01-26T22:37:04.294Z,101084.37
2023-01-26T22:39:32.480Z,101082.56
2023-01-26T22:42:00.888Z,101081.13
2023-01-26T22:44:28.818Z,101076.06
2023-01-26T22:46:56.923Z,101081.31
2023-01-26T22:49:25.396Z,101082.88
2023-01-26T22:51:54.688Z,101089.25
2023-01-26T22:54:22.648Z,101093.59
2023-01-26T22:56:50.852Z,101086.62
2023-01-26T22:59:18.847Z,101090.28
2023-01-26T23:01:46.939Z,101090.53
2023-01-26T23:04:18.609Z,101097.63
2023-01-26T23:06:48.637Z,101097.53
2023-01-26T23:09:18.311Z,101095.88
2023-01-26T23:12:01.470Z,101097.69
2023-01-26T23:14:30.178Z,101088.28
2023-01-26T23:16:58.777Z,101090.72
2023-01-26T23:19:27.159Z,101083.53
2023-01-26T23:21:56.085Z,101081.88
2023-01-26T23:24:25.500Z,101085.59
2023-01-26T23:26:53.559Z,101082.94
2023-01-26T23:29:22.314Z,101090.00
2023-01-26T23:31:52.898Z,101099.75
2023-01-26T23:34:21.260Z,101089.88
2023-01-26T23:36:49.681Z,101089.94
2023-01-26T23:39:18.007Z,101087.41
2023-01-26T23:41:49.766Z,101085.78
2023-01-26T23:44:18.057Z,101084.97
2023-01-26T23:46:46.205Z,101085.06
2023-01-26T23:49:14.312Z,101080.38
2023-01-26T23:51:45.935Z,101087.31
2023-01-26T23:54:14.094Z,101082.13
2023-01-26T23:56:42.462Z,101083.19
2023-01-26T23:59:11.792Z,101076.28
